• Join FlightAware (Why Join?)
  • Login
  • US Flag 
01:25AM EDT


 

Airport Tracker/Info


-or-


 

Live Flight TrackerFlight Track Log ✈ UAL270 ✈ 08-May-2013 ✈ KDEN - KBOI

Flight Track Log - Related Links

Times and Time Zones

All times are in EDT time to prevent confusion due to time zone crossing. See the UAL270 flight status page for this flight to view local times or setup timezone preferences in your user account.

Time Position Orientation Groundspeed Altitude Reporting Facility
EDT Latitude Longitude Course Direction KTS MPH feet Rate Location/Type
01:51PM 39.9500 -104.7000 323° Northwest 198 228 7,100  Level Denver TRACON
01:51PM 40.0000 -104.7167 346° North 249 287 9,300 2,400 Climbing Denver TRACON
01:52PM 40.0203 -104.7236 345° North 248 285 10,000 2,160 Climbing Denver Center
01:53PM 40.1365 -104.4532 323° Northwest  Level FlightAware Approximate
01:53PM 40.1003 -104.7558 343° North 295 339 12,200  Level Denver Center
01:54PM 40.2321 -104.5417 327° Northwest  Level FlightAware Approximate
01:54PM 40.1994 -104.8033 340° North 347 399 14,900  Level Denver Center
01:55PM 40.3219 -104.6219 323° Northwest  Level FlightAware Approximate
01:55PM 40.2969 -104.8486 340° North 368 423 17,300  Level Denver Center
01:56PM 40.4151 -104.7151 323° Northwest  Level FlightAware Approximate
01:56PM 40.4036 -104.8994 340° North 364 419 21,100  Level Denver Center
01:57PM 40.4981 -104.9422 341° North 356 410 24,200 2,700 Climbing Denver Center
01:58PM 40.5864 -104.9844 340° North 341 392 26,800 1,980 Climbing Denver Center
01:59PM 40.6806 -105.0311 339° North 337 388 28,400 1,260 Climbing Denver Center
02:00PM 40.7692 -105.0775 338° Northwest 348 400 29,500 1,380 Climbing Denver Center
02:01PM 40.8683 -105.1592 328° Northwest 372 428 31,300 1,260 Climbing Denver Center
02:02PM 40.9478 -105.2444 321° Northwest 386 444 32,200 720 Climbing Denver Center
02:03PM 40.9897 -105.3767 293° West 406 467 32,800 600 Climbing Denver Center
02:04PM 41.0392 -105.5397 292° West 426 490 33,500 540 Climbing Denver Center
02:05PM 41.0825 -105.6858 292° West 440 506 34,000 480 Climbing Denver Center
02:06PM 41.1328 -105.8575 291° West 445 512 34,600 960 Climbing Denver Center
02:07PM 41.1783 -106.0092 292° West 458 527 36,000 660 Climbing Denver Center
02:08PM 41.2286 -106.1872 291° West 454 522 36,000  Level Denver Center
02:09PM 41.2717 -106.3367 291° West 454 522 36,000  Level Denver Center
02:10PM 41.3203 -106.5078 291° West 451 519 36,000 -60 Level Denver Center
02:11PM 41.3622 -106.6583 290° West 448 516 35,900  Descending Denver Center
02:12PM 41.4044 -106.8075 291° West 452 520 36,000  Climbing Denver Center
02:13PM 41.4536 -106.9822 291° West 451 519 36,000  Level Denver Center
02:14PM 41.4950 -107.1339 290° West 455 524 36,000  Level Denver Center
02:15PM 41.5439 -107.3119 290° West 457 526 36,000  Level Denver Center
02:16PM 41.5850 -107.4628 290° West 455 524 36,000 360 Level Denver Center
02:18PM 41.6342 -107.6422 290° West 460 529 36,800 660 Climbing Denver Center
02:19PM 41.6761 -107.7961 290° West 461 531 37,400 540 Climbing Denver Center
02:20PM 41.7253 -107.9786 290° West 467 537 38,000 240 Climbing Denver Center
02:21PM 41.7656 -108.1319 289° West 461 531 38,000  Level Denver Center
02:21PM 41.7986 -108.2619 289° West 465 535 38,000  Level Salt Lake Center
02:22PM 41.8392 -108.4178 289° West 464 534 38,000  Level Salt Lake Center
02:23PM 41.8867 -108.5997 289° West 465 535 38,000  Level Salt Lake Center
02:24PM 41.9283 -108.7567 290° West 469 540 38,000  Level Salt Lake Center
02:25PM 41.9750 -108.9397 289° West 468 539 38,000  Level Salt Lake Center
02:26PM 42.0153 -109.0967 289° West 467 537 38,000  Level Salt Lake Center
02:28PM 42.0611 -109.2806 289° West 468 539 38,000  Level Salt Lake Center
02:29PM 42.1003 -109.4372 289° West 466 536 38,000 -60 Level Salt Lake Center
02:30PM 42.1394 -109.5931 289° West 463 533 37,900  Descending Salt Lake Center
02:31PM 42.1844 -109.7775 288° West 465 535 38,000  Climbing Salt Lake Center
02:32PM 42.2228 -109.9347 288° West 463 533 38,000  Level Salt Lake Center
02:33PM 42.2686 -110.1189 289° West 464 534 38,000  Level Salt Lake Center
02:34PM 42.3078 -110.2769 289° West 465 535 38,000  Level Salt Lake Center
02:35PM 42.3531 -110.4633 288° West 468 539 38,100  Climbing Salt Lake Center
02:36PM 42.3914 -110.6231 288° West 468 539 38,000 -60 Descending Salt Lake Center
02:37PM 42.4347 -110.8092 288° West 466 536 38,000  Level Salt Lake Center
02:38PM 42.4756 -110.9825 288° West 463 533 38,000  Level Salt Lake Center
02:39PM 42.5139 -111.1397 288° West 459 528 38,000  Level Salt Lake Center
02:40PM 42.5689 -111.2861 297° West 453 521 38,000  Level Salt Lake Center
02:41PM 42.6367 -111.4342 302° West 452 520 38,000 -60 Level Salt Lake Center
02:42PM 42.7108 -111.6103 300° West 454 522 37,900 -300 Descending Salt Lake Center
02:43PM 42.7586 -111.7703 292° West 462 532 37,500 -480 Descending Salt Lake Center
02:44PM 42.7919 -111.9331 286° West 466 536 37,000 -300 Descending Salt Lake Center
02:45PM 42.8303 -112.1244 285° West 468 539 37,000  Level Salt Lake Center
02:46PM 42.8617 -112.2864 285° West 463 533 37,000  Level Salt Lake Center
02:47PM 42.8942 -112.4472 285° West 461 531 37,000 -120 Level Salt Lake Center
02:48PM 42.9311 -112.6375 285° West 463 533 36,800 -540 Descending Salt Lake Center
02:49PM 42.9628 -112.8025 285° West 468 539 35,900 -1,020 Descending Salt Lake Center
02:50PM 42.9997 -112.9956 285° West 468 539 34,800 -960 Descending Salt Lake Center
02:51PM 43.0314 -113.1575 285° West 462 532 34,000 -420 Descending Salt Lake Center
02:52PM 43.0661 -113.3458 284° West 458 527 34,000  Level Salt Lake Center
02:53PM 43.0961 -113.5067 284° West 458 527 34,000  Level Salt Lake Center
02:54PM 43.1261 -113.6686 284° West 454 522 34,000  Level Salt Lake Center
02:55PM 43.1600 -113.8561 284° West 454 522 34,000  Level Salt Lake Center
02:56PM 43.1933 -114.0364 284° West 453 521 34,000  Level Salt Lake Center
02:57PM 43.2217 -114.2014 283° West 455 524 34,000  Level Salt Lake Center
02:58PM 43.2503 -114.3603 284° West 448 516 34,000 -1,140 Level Salt Lake Center
02:59PM 43.2789 -114.5519 282° West 461 531 31,700 -2,400 Descending Salt Lake Center
03:00PM 43.3031 -114.7133 282° West 452 520 29,100 -2,580 Descending Salt Lake Center
03:01PM 43.3294 -114.8947 281° West 435 501 26,500 -2,100 Descending Salt Lake Center
03:03PM 43.3503 -115.0458 281° West 421 484 24,800 -1,980 Descending Salt Lake Center
03:04PM 43.3703 -115.1889 281° West 402 463 22,500 -2,940 Descending Salt Lake Center
03:05PM 43.3939 -115.3500 281° West 385 443 18,800 -3,300 Descending Salt Lake Center
03:06PM 43.4131 -115.4925 281° West 366 421 15,800 -3,060 Descending Salt Lake Center
03:07PM 43.4386 -115.6261 285° West 348 400 12,500 -2,760 Descending Salt Lake Center
03:08PM 43.4669 -115.7467 288° West 344 396 10,200 -1,800 Descending Salt Lake Center
03:09PM 43.4742 -115.8578 275° West 283 326 8,900 -960 Descending Salt Lake Center
03:10PM 43.4786 -115.9497 274° West 229 264 8,300 -1,260 Descending Salt Lake Center
03:11PM 43.4942 -116.0178 288° West 181 208 6,400 -1,920 Descending Salt Lake Center